Kimball, Ohio
Current Conditions -  °F | °C
As of 11:13 AM on Monday 24 Nov 2014 (Local Time) from KPCW Reporting Station
Scattered Clouds Scattered Clouds  
Wind Chill: 57°   Ceiling: Unl
Heat Index: 57°   Visibility: 10mi
Dew Point: 52°   Wind: 21mph
Humidity: 82%   Direction: 220°SW
Pressure: 29.2"   Gusts: NA
Location:  41.2282°N, 82.706°W
Report Text: KPCW 241613Z AUTO 22018KT 10SM SCT060 14/11 A2920 RMK AO2 $
Loading
Personal Weather Stations






























Interactive Weather Map New forecast layout! Learn more

10-Day Weather Forecast

Advertisements
Track Severe Weather on mobile